Time,TemperatureF,DewpointF,PressureIn,WindDirection,WindDirectionDegrees,WindSpeedMPH,WindSpeedGustMPH,Humidity,HourlyPrecipIn,Conditions,Clouds,dailyrainin,SolarRadiationWatts/m^2,SoftwareType,DateUTC
2013-05-17 00:01:00,69.6,66.2,30.04,SSE,163,0.0,3.0,89,0.00,,,0.00,0.0,meteohub,2013-05-17 04:01:00,
2013-05-17 00:06:00,69.6,66.2,30.04,SSE,163,0.0,3.0,89,0.00,,,0.00,0.0,meteohub,2013-05-17 04:06:00,
2013-05-17 00:11:00,69.6,66.2,30.04,SSE,163,0.0,1.0,89,0.00,,,0.00,0.0,meteohub,2013-05-17 04:11:00,
2013-05-17 00:16:00,69.6,65.8,30.04,SSE,163,0.0,2.0,88,0.00,,,0.00,0.0,meteohub,2013-05-17 04:16:00,
2013-05-17 00:21:00,69.6,65.8,30.04,SSE,167,0.0,2.0,88,0.00,,,0.00,0.0,meteohub,2013-05-17 04:21:00,
2013-05-17 00:26:00,69.8,66.0,30.04,SE,133,1.0,4.0,88,0.00,,,0.00,0.0,meteohub,2013-05-17 04:26:00,
2013-05-17 00:31:00,70.0,66.0,30.04,SSE,157,0.0,4.0,87,0.00,,,0.00,0.0,meteohub,2013-05-17 04:31:00,
2013-05-17 00:36:00,70.0,66.0,30.03,SSE,157,1.0,4.0,87,0.00,,,0.00,0.0,meteohub,2013-05-17 04:36:00,
2013-05-17 00:41:00,69.6,65.7,30.03,SSE,157,0.0,3.0,87,0.00,,,0.00,0.0,meteohub,2013-05-17 04:41:00,
2013-05-17 00:46:00,69.4,65.5,30.03,SSE,157,0.0,1.0,87,0.00,,,0.00,0.0,meteohub,2013-05-17 04:46:00,
2013-05-17 00:51:00,69.4,65.5,30.03,SSE,157,0.0,2.0,87,0.00,,,0.00,0.0,meteohub,2013-05-17 04:51:00,
2013-05-17 00:56:00,69.3,65.3,30.03,SSE,157,0.0,2.0,87,0.00,,,0.00,0.0,meteohub,2013-05-17 04:56:00,
2013-05-17 01:01:00,69.3,65.3,30.03,SSE,157,0.0,2.0,87,0.00,,,0.00,0.0,meteohub,2013-05-17 05:01:00,
2013-05-17 01:06:00,69.3,65.5,30.03,SSE,157,0.0,1.0,88,0.00,,,0.00,0.0,meteohub,2013-05-17 05:06:00,
2013-05-17 01:11:00,69.3,65.3,30.03,SSE,157,1.0,2.0,87,0.00,,,0.00,0.0,meteohub,2013-05-17 05:11:00,
2013-05-17 01:16:00,69.4,65.5,30.03,SSE,157,1.0,2.0,87,0.00,,,0.00,0.0,meteohub,2013-05-17 05:16:00,
2013-05-17 01:21:00,69.3,65.3,30.03,SSE,157,0.0,2.0,87,0.00,,,0.00,0.0,meteohub,2013-05-17 05:21:00,
2013-05-17 01:26:00,69.1,65.1,30.03,SSE,157,0.0,2.0,87,0.00,,,0.00,0.0,meteohub,2013-05-17 05:26:00,
2013-05-17 01:31:00,68.9,65.1,30.02,SSE,157,0.0,2.0,88,0.00,,,0.00,0.0,meteohub,2013-05-17 05:31:00,
2013-05-17 01:36:00,68.7,64.9,30.02,SSE,157,0.0,0.0,88,0.00,,,0.00,0.0,meteohub,2013-05-17 05:36:00,
2013-05-17 01:41:00,68.5,65.1,30.02,SSE,157,0.0,0.0,89,0.00,,,0.00,0.0,meteohub,2013-05-17 05:41:00,
2013-05-17 01:46:00,68.5,65.1,30.02,SSE,157,0.0,0.0,89,0.00,,,0.00,0.0,meteohub,2013-05-17 05:46:00,
2013-05-17 01:51:00,68.4,64.9,30.02,SSE,157,0.0,0.0,89,0.00,,,0.00,0.0,meteohub,2013-05-17 05:51:00,
2013-05-17 01:56:00,68.2,64.8,30.02,SSE,157,0.0,1.0,89,0.00,,,0.00,0.0,meteohub,2013-05-17 05:56:00,
2013-05-17 02:01:00,68.2,64.8,30.02,SSE,157,0.0,1.0,89,0.00,,,0.00,0.0,meteohub,2013-05-17 06:01:00,
2013-05-17 02:06:00,68.0,64.9,30.02,SSE,157,0.0,0.0,90,0.00,,,0.00,0.0,meteohub,2013-05-17 06:06:00,
2013-05-17 02:11:00,67.8,64.8,30.02,SSE,157,0.0,1.0,90,0.00,,,0.00,0.0,meteohub,2013-05-17 06:11:00,
2013-05-17 02:16:00,67.8,64.8,30.02,SSE,157,0.0,1.0,90,0.00,,,0.00,0.0,meteohub,2013-05-17 06:16:00,
2013-05-17 02:21:00,67.8,64.8,30.01,SSE,157,0.0,3.0,90,0.00,,,0.00,0.0,meteohub,2013-05-17 06:21:00,
2013-05-17 02:26:00,67.8,64.8,30.01,SSE,157,0.0,3.0,90,0.00,,,0.00,0.0,meteohub,2013-05-17 06:26:00,
2013-05-17 02:31:00,67.8,64.8,30.01,SSE,157,0.0,3.0,90,0.00,,,0.00,0.0,meteohub,2013-05-17 06:31:00,
2013-05-17 02:36:00,67.6,64.6,30.01,SSE,157,0.0,1.0,90,0.00,,,0.00,0.0,meteohub,2013-05-17 06:36:00,
2013-05-17 02:41:00,67.6,64.6,30.01,SSE,157,0.0,1.0,90,0.00,,,0.00,0.0,meteohub,2013-05-17 06:41:00,
2013-05-17 02:46:00,67.6,64.6,30.01,SSE,157,0.0,1.0,90,0.00,,,0.00,0.0,meteohub,2013-05-17 06:46:00,
2013-05-17 02:51:00,67.6,64.6,30.01,SSE,157,0.0,1.0,90,0.00,,,0.00,0.0,meteohub,2013-05-17 06:51:00,
2013-05-17 02:56:00,67.8,64.4,30.01,SSE,161,0.0,3.0,89,0.00,,,0.00,0.0,meteohub,2013-05-17 06:56:00,
2013-05-17 03:01:00,67.8,64.4,30.01,SSE,160,0.0,3.0,89,0.00,,,0.00,0.0,meteohub,2013-05-17 07:01:00,
2013-05-17 03:06:00,67.8,64.4,30.01,SSE,161,0.0,3.0,89,0.00,,,0.00,0.0,meteohub,2013-05-17 07:06:00,
2013-05-17 03:12:00,67.8,64.4,30.02,SSE,161,0.0,2.0,89,0.00,,,0.00,0.0,meteohub,2013-05-17 07:12:00,
2013-05-17 03:16:00,67.6,64.2,30.01,SSE,161,0.0,2.0,89,0.00,,,0.00,0.0,meteohub,2013-05-17 07:16:00,
2013-05-17 03:21:00,67.6,64.2,30.01,SSE,161,1.0,2.0,89,0.00,,,0.00,0.0,meteohub,2013-05-17 07:21:00,
2013-05-17 03:26:00,67.6,64.2,30.01,SSE,157,0.0,3.0,89,0.00,,,0.00,0.0,meteohub,2013-05-17 07:26:00,
2013-05-17 03:31:00,67.8,64.2,30.01,SSW,205,0.0,3.0,88,0.00,,,0.00,0.0,meteohub,2013-05-17 07:31:00,
2013-05-17 03:36:00,67.8,64.2,30.02,SSW,204,0.0,3.0,88,0.00,,,0.00,0.0,meteohub,2013-05-17 07:36:00,
2013-05-17 03:41:00,67.8,64.2,30.02,South,182,1.0,3.0,88,0.00,,,0.00,0.0,meteohub,2013-05-17 07:41:00,
2013-05-17 03:47:00,67.6,64.0,30.02,South,184,0.0,2.0,88,0.00,,,0.00,0.0,meteohub,2013-05-17 07:47:00,
2013-05-17 03:52:00,67.6,64.0,30.02,South,185,0.0,3.0,88,0.00,,,0.00,0.0,meteohub,2013-05-17 07:52:00,
2013-05-17 03:57:00,67.5,63.9,30.01,South,185,0.0,3.0,88,0.00,,,0.00,0.0,meteohub,2013-05-17 07:57:00,
2013-05-17 04:02:00,67.5,63.9,30.02,South,184,0.0,3.0,88,0.00,,,0.00,0.0,meteohub,2013-05-17 08:02:00,
2013-05-17 04:07:00,67.3,63.7,30.02,South,185,0.0,1.0,88,0.00,,,0.00,0.0,meteohub,2013-05-17 08:07:00,
2013-05-17 04:12:00,67.1,63.7,30.02,South,185,0.0,1.0,89,0.00,,,0.00,0.0,meteohub,2013-05-17 08:12:00,
2013-05-17 04:17:00,66.9,63.5,30.02,South,184,0.0,3.0,89,0.00,,,0.00,0.0,meteohub,2013-05-17 08:17:00,
2013-05-17 04:22:00,66.7,63.3,30.02,South,184,0.0,3.0,89,0.00,,,0.00,0.0,meteohub,2013-05-17 08:22:00,
2013-05-17 04:27:00,66.6,63.1,30.02,South,185,0.0,2.0,89,0.00,,,0.00,0.0,meteohub,2013-05-17 08:27:00,
2013-05-17 04:32:00,66.6,63.1,30.02,SSE,166,0.0,4.0,89,0.00,,,0.00,0.0,meteohub,2013-05-17 08:32:00,
2013-05-17 04:37:00,66.4,63.3,30.02,SSE,165,0.0,5.0,90,0.00,,,0.00,0.0,meteohub,2013-05-17 08:37:00,
2013-05-17 04:42:00,66.2,63.1,30.02,SSE,166,0.0,5.0,90,0.00,,,0.00,0.0,meteohub,2013-05-17 08:42:00,
2013-05-17 04:47:00,66.0,63.0,30.02,SSE,166,0.0,3.0,90,0.00,,,0.00,0.0,meteohub,2013-05-17 08:47:00,
2013-05-17 04:52:00,66.0,63.0,30.03,SSE,165,0.0,2.0,90,0.00,,,0.00,0.0,meteohub,2013-05-17 08:52:00,
2013-05-17 04:57:00,65.8,62.8,30.03,SSE,165,0.0,0.0,90,0.00,,,0.00,0.0,meteohub,2013-05-17 08:57:00,
2013-05-17 05:02:00,65.7,62.6,30.03,SSE,166,0.0,0.0,90,0.00,,,0.00,0.0,meteohub,2013-05-17 09:02:00,
2013-05-17 05:07:00,65.1,62.4,30.03,SSE,166,0.0,0.0,91,0.00,,,0.00,0.0,meteohub,2013-05-17 09:07:00,
2013-05-17 05:12:00,64.9,62.2,30.03,SSE,166,0.0,0.0,91,0.00,,,0.00,0.0,meteohub,2013-05-17 09:12:00,
2013-05-17 05:17:00,64.8,62.1,30.03,SSE,165,0.0,0.0,91,0.00,,,0.00,0.0,meteohub,2013-05-17 09:17:00,
2013-05-17 05:22:00,64.4,62.1,30.03,SSE,166,0.0,0.0,92,0.00,,,0.00,0.0,meteohub,2013-05-17 09:22:00,
2013-05-17 05:27:00,64.0,61.7,30.03,SSE,166,0.0,0.0,92,0.00,,,0.00,0.0,meteohub,2013-05-17 09:27:00,
2013-05-17 05:32:00,64.0,62.1,30.03,SSE,165,0.0,0.0,93,0.00,,,0.00,0.0,meteohub,2013-05-17 09:32:00,
2013-05-17 05:37:00,63.9,61.9,30.03,SSE,166,0.0,0.0,93,0.00,,,0.00,0.0,meteohub,2013-05-17 09:37:00,
2013-05-17 05:42:00,63.7,61.7,30.03,SSE,166,0.0,0.0,93,0.00,,,0.00,0.0,meteohub,2013-05-17 09:42:00,
2013-05-17 05:47:00,63.7,61.7,30.03,SSE,166,0.0,0.0,93,0.00,,,0.00,0.0,meteohub,2013-05-17 09:47:00,
2013-05-17 05:52:00,63.9,62.1,30.04,SSE,165,0.0,0.0,94,0.00,,,0.00,0.0,meteohub,2013-05-17 09:52:00,
2013-05-17 05:57:00,63.7,61.9,30.04,SSE,166,0.0,0.0,94,0.00,,,0.00,0.0,meteohub,2013-05-17 09:57:00,
2013-05-17 06:02:00,63.5,61.7,30.04,SSE,166,0.0,0.0,94,0.00,,,0.00,0.0,meteohub,2013-05-17 10:02:00,
2013-05-17 06:07:00,63.3,61.5,30.04,SSE,165,0.0,0.0,94,0.00,,,0.00,0.0,meteohub,2013-05-17 10:07:00,
2013-05-17 06:12:00,63.3,61.5,30.04,SSE,165,0.0,0.0,94,0.00,,,0.00,0.0,meteohub,2013-05-17 10:12:00,
2013-05-17 06:17:00,63.1,61.3,30.04,SSE,165,0.0,0.0,94,0.00,,,0.00,0.0,meteohub,2013-05-17 10:17:00,
2013-05-17 06:21:00,63.0,61.2,30.04,SSE,166,0.0,0.0,94,0.00,,,0.00,0.0,meteohub,2013-05-17 10:21:00,
2013-05-17 06:27:00,63.0,61.5,30.04,SSE,166,0.0,0.0,95,0.00,,,0.00,0.0,meteohub,2013-05-17 10:27:00,
2013-05-17 06:32:00,62.8,61.3,30.05,SSE,165,0.0,0.0,95,0.00,,,0.00,0.0,meteohub,2013-05-17 10:32:00,
2013-05-17 06:37:00,62.8,61.3,30.05,SSE,166,0.0,0.0,95,0.00,,,0.00,7.0,meteohub,2013-05-17 10:37:00,
2013-05-17 06:41:00,62.8,61.3,30.05,SSE,166,0.0,0.0,95,0.00,,,0.00,11.0,meteohub,2013-05-17 10:41:00,
2013-05-17 06:46:00,62.6,61.2,30.05,SSE,166,0.0,0.0,95,0.00,,,0.00,16.0,meteohub,2013-05-17 10:46:00,
2013-05-17 06:51:00,62.4,61.0,30.06,SSE,166,0.0,0.0,95,0.00,,,0.00,25.0,meteohub,2013-05-17 10:51:00,
2013-05-17 06:57:00,62.2,60.8,30.06,SSE,166,0.0,0.0,95,0.00,,,0.00,30.0,meteohub,2013-05-17 10:57:00,
2013-05-17 07:02:00,62.4,61.3,30.06,SSE,166,0.0,0.0,96,0.00,,,0.00,49.0,meteohub,2013-05-17 11:02:00,
2013-05-17 07:07:00,62.8,61.7,30.06,SSE,165,0.0,0.0,96,0.00,,,0.00,46.0,meteohub,2013-05-17 11:07:00,
2013-05-17 07:12:00,63.1,62.1,30.06,SSE,166,0.0,0.0,96,0.00,,,0.00,84.0,meteohub,2013-05-17 11:12:00,
2013-05-17 07:17:00,63.3,62.2,30.06,SSE,166,0.0,0.0,96,0.00,,,0.00,104.0,meteohub,2013-05-17 11:17:00,
2013-05-17 07:22:00,63.7,62.6,30.07,SSE,166,0.0,0.0,96,0.00,,,0.00,81.0,meteohub,2013-05-17 11:22:00,
2013-05-17 07:27:00,63.9,62.8,30.07,SSE,166,0.0,0.0,96,0.00,,,0.00,139.0,meteohub,2013-05-17 11:27:00,
2013-05-17 07:31:00,64.4,63.3,30.07,SSE,166,0.0,0.0,96,0.00,,,0.00,95.0,meteohub,2013-05-17 11:31:00,
2013-05-17 07:36:00,64.8,63.7,30.07,SSE,166,0.0,0.0,96,0.00,,,0.00,67.0,meteohub,2013-05-17 11:36:00,
2013-05-17 07:42:00,64.9,63.5,30.07,SSE,165,0.0,0.0,95,0.00,,,0.00,183.0,meteohub,2013-05-17 11:42:00,
2013-05-17 07:47:00,65.5,64.0,30.07,SSE,165,0.0,0.0,95,0.00,,,0.00,197.0,meteohub,2013-05-17 11:47:00,
2013-05-17 07:52:00,66.4,64.9,30.08,SSE,166,0.0,0.0,95,0.00,,,0.00,207.0,meteohub,2013-05-17 11:52:00,
2013-05-17 07:57:00,67.5,65.3,30.08,SSE,166,0.0,0.0,93,0.00,,,0.00,218.0,meteohub,2013-05-17 11:57:00,
2013-05-17 08:02:00,68.5,65.8,30.08,SSE,165,0.0,1.0,91,0.00,,,0.00,243.0,meteohub,2013-05-17 12:02:00,
2013-05-17 08:07:00,69.6,66.2,30.08,SSE,166,0.0,1.0,89,0.00,,,0.00,274.0,meteohub,2013-05-17 12:07:00,
2013-05-17 08:12:00,70.5,66.4,30.08,SSE,166,0.0,1.0,87,0.00,,,0.00,283.0,meteohub,2013-05-17 12:12:00,
2013-05-17 08:17:00,71.1,66.4,30.08,SSE,165,0.0,1.0,85,0.00,,,0.00,113.0,meteohub,2013-05-17 12:17:00,
2013-05-17 08:22:00,71.6,66.6,30.08,SSE,165,0.0,1.0,84,0.00,,,0.00,315.0,meteohub,2013-05-17 12:22:00,
2013-05-17 08:27:00,72.1,66.4,30.08,SSE,165,0.0,1.0,82,0.00,,,0.00,338.0,meteohub,2013-05-17 12:27:00,
2013-05-17 08:32:00,72.9,67.1,30.08,SW,225,0.0,6.0,82,0.00,,,0.00,376.0,meteohub,2013-05-17 12:32:00,
2013-05-17 08:37:00,73.2,66.4,30.08,WSW,240,1.0,6.0,79,0.00,,,0.00,153.0,meteohub,2013-05-17 12:37:00,
2013-05-17 08:42:00,72.9,66.0,30.08,South,178,6.0,8.0,79,0.00,,,0.00,132.0,meteohub,2013-05-17 12:42:00,
2013-05-17 08:47:00,72.5,65.7,30.08,SE,146,1.0,8.0,79,0.00,,,0.00,123.0,meteohub,2013-05-17 12:47:00,
2013-05-17 08:52:00,72.5,66.0,30.08,SE,145,0.0,8.0,80,0.00,,,0.00,371.0,meteohub,2013-05-17 12:52:00,
2013-05-17 08:57:00,73.0,66.9,30.09,WSW,238,0.0,6.0,81,0.00,,,0.00,473.0,meteohub,2013-05-17 12:57:00,
2013-05-17 09:02:00,73.8,66.4,30.09,South,180,0.0,3.0,78,0.00,,,0.00,483.0,meteohub,2013-05-17 13:02:00,
2013-05-17 09:07:00,74.7,66.6,30.09,SSE,150,1.0,6.0,76,0.00,,,0.00,492.0,meteohub,2013-05-17 13:07:00,
2013-05-17 09:12:00,75.0,67.3,30.09,SSE,165,1.0,6.0,77,0.00,,,0.00,497.0,meteohub,2013-05-17 13:12:00,
2013-05-17 09:16:00,75.6,66.7,30.09,South,180,0.0,6.0,74,0.00,,,0.00,504.0,meteohub,2013-05-17 13:16:00,
2013-05-17 09:21:00,75.7,66.9,30.09,SSW,194,3.0,6.0,74,0.00,,,0.00,524.0,meteohub,2013-05-17 13:21:00,
2013-05-17 09:26:00,76.1,66.7,30.09,SSE,167,1.0,4.0,73,0.00,,,0.00,552.0,meteohub,2013-05-17 13:26:00,
2013-05-17 09:31:00,76.3,67.8,30.09,SSE,167,0.0,6.0,75,0.00,,,0.00,357.0,meteohub,2013-05-17 13:31:00,
2013-05-17 09:36:00,76.5,67.6,30.09,SSE,165,0.0,6.0,74,0.00,,,0.00,575.0,meteohub,2013-05-17 13:36:00,
2013-05-17 09:41:00,77.2,67.5,30.09,SE,124,0.0,4.0,72,0.00,,,0.00,592.0,meteohub,2013-05-17 13:41:00,
2013-05-17 09:46:00,77.5,67.5,30.09,SSE,168,0.0,4.0,71,0.00,,,0.00,606.0,meteohub,2013-05-17 13:46:00,
2013-05-17 09:51:00,78.1,68.4,30.09,SSE,160,0.0,4.0,72,0.00,,,0.00,615.0,meteohub,2013-05-17 13:51:00,
2013-05-17 09:56:00,78.4,67.8,30.09,South,180,0.0,3.0,70,0.00,,,0.00,638.0,meteohub,2013-05-17 13:56:00,
2013-05-17 10:01:00,78.4,66.9,30.09,South,176,0.0,3.0,68,0.00,,,0.00,657.0,meteohub,2013-05-17 14:01:00,
2013-05-17 10:06:00,78.6,68.0,30.09,SW,236,2.0,6.0,70,0.00,,,0.00,677.0,meteohub,2013-05-17 14:06:00,
2013-05-17 10:11:00,78.4,66.9,30.09,SSE,156,1.0,6.0,68,0.00,,,0.00,705.0,meteohub,2013-05-17 14:11:00,
2013-05-17 10:16:00,78.4,66.6,30.09,South,174,1.0,4.0,67,0.00,,,0.00,747.0,meteohub,2013-05-17 14:16:00,
2013-05-17 10:21:00,78.6,67.6,30.09,South,171,0.0,5.0,69,0.00,,,0.00,754.0,meteohub,2013-05-17 14:21:00,
2013-05-17 10:26:00,79.2,67.6,30.09,West,275,0.0,5.0,68,0.00,,,0.00,747.0,meteohub,2013-05-17 14:26:00,
2013-05-17 10:31:00,78.8,66.6,30.09,WNW,288,1.0,6.0,66,0.00,,,0.00,745.0,meteohub,2013-05-17 14:31:00,
2013-05-17 10:36:00,79.2,67.6,30.09,West,271,0.0,6.0,68,0.00,,,0.00,749.0,meteohub,2013-05-17 14:36:00,
2013-05-17 10:41:00,79.3,67.5,30.09,South,169,0.0,6.0,67,0.00,,,0.00,770.0,meteohub,2013-05-17 14:41:00,
2013-05-17 10:46:00,79.9,68.0,30.09,SSE,155,0.0,4.0,67,0.00,,,0.00,780.0,meteohub,2013-05-17 14:46:00,
2013-05-17 10:51:00,79.9,68.4,30.09,West,260,0.0,4.0,68,0.00,,,0.00,789.0,meteohub,2013-05-17 14:51:00,
2013-05-17 10:56:00,79.9,66.6,30.09,South,174,0.0,4.0,64,0.00,,,0.00,796.0,meteohub,2013-05-17 14:56:00,
2013-05-17 11:01:00,80.6,67.3,30.09,South,174,0.0,4.0,64,0.00,,,0.00,814.0,meteohub,2013-05-17 15:01:00,
2013-05-17 11:06:00,81.0,67.6,30.09,ESE,119,0.0,5.0,64,0.00,,,0.00,796.0,meteohub,2013-05-17 15:06:00,
2013-05-17 11:11:00,81.0,67.1,30.09,SSE,168,0.0,5.0,63,0.00,,,0.00,833.0,meteohub,2013-05-17 15:11:00,
2013-05-17 11:16:00,81.0,67.6,30.09,NW,305,1.0,5.0,64,0.00,,,0.00,851.0,meteohub,2013-05-17 15:16:00,
2013-05-17 11:21:00,80.2,66.9,30.09,WNW,298,0.0,7.0,64,0.00,,,0.00,861.0,meteohub,2013-05-17 15:21:00,
2013-05-17 11:26:00,80.1,67.3,30.09,SW,227,0.0,7.0,65,0.00,,,0.00,868.0,meteohub,2013-05-17 15:26:00,
2013-05-17 11:31:00,80.8,68.7,30.09,SE,136,0.0,7.0,67,0.00,,,0.00,881.0,meteohub,2013-05-17 15:31:00,
2013-05-17 11:36:00,81.1,67.3,30.09,South,169,0.0,4.0,63,0.00,,,0.00,895.0,meteohub,2013-05-17 15:36:00,
2013-05-17 11:41:00,81.1,67.8,30.09,South,169,0.0,3.0,64,0.00,,,0.00,891.0,meteohub,2013-05-17 15:41:00,
2013-05-17 11:46:00,81.3,67.5,30.09,SSE,156,0.0,2.0,63,0.00,,,0.00,914.0,meteohub,2013-05-17 15:46:00,
2013-05-17 11:51:00,81.3,67.5,30.08,NW,310,2.0,4.0,63,0.00,,,0.00,918.0,meteohub,2013-05-17 15:51:00,
2013-05-17 11:56:00,81.7,69.3,30.09,West,279,0.0,4.0,66,0.00,,,0.00,926.0,meteohub,2013-05-17 15:56:00,
2013-05-17 12:01:00,81.9,68.0,30.09,NE,51,0.0,4.0,63,0.00,,,0.00,932.0,meteohub,2013-05-17 16:01:00,
2013-05-17 12:06:00,81.7,67.8,30.08,WNW,290,0.0,3.0,63,0.00,,,0.00,951.0,meteohub,2013-05-17 16:06:00,
2013-05-17 12:11:00,81.7,66.9,30.08,WNW,290,0.0,7.0,61,0.00,,,0.00,940.0,meteohub,2013-05-17 16:11:00,
2013-05-17 12:16:00,81.5,67.6,30.08,WNW,290,0.0,7.0,63,0.00,,,0.00,933.0,meteohub,2013-05-17 16:16:00,
2013-05-17 12:21:00,81.7,66.9,30.08,WNW,290,0.0,3.0,61,0.00,,,0.00,963.0,meteohub,2013-05-17 16:21:00,
2013-05-17 12:26:00,81.9,67.1,30.08,NNW,337,1.0,3.0,61,0.00,,,0.00,963.0,meteohub,2013-05-17 16:26:00,
2013-05-17 12:31:00,82.0,67.3,30.08,ESE,111,3.0,3.0,61,0.00,,,0.00,979.0,meteohub,2013-05-17 16:31:00,
2013-05-17 12:36:00,82.6,68.2,30.08,SE,138,0.0,3.0,62,0.00,,,0.00,977.0,meteohub,2013-05-17 16:36:00,
2013-05-17 12:41:00,83.5,68.5,30.08,SSE,161,2.0,5.0,61,0.00,,,0.00,981.0,meteohub,2013-05-17 16:41:00,
2013-05-17 12:46:00,83.7,67.8,30.08,ESE,111,1.0,5.0,59,0.00,,,0.00,991.0,meteohub,2013-05-17 16:46:00,
2013-05-17 12:51:00,83.5,67.1,30.08,East,92,0.0,5.0,58,0.00,,,0.00,1014.0,meteohub,2013-05-17 16:51:00,
2013-05-17 12:56:00,82.9,67.1,30.08,WNW,296,1.0,4.0,59,0.00,,,0.00,960.0,meteohub,2013-05-17 16:56:00,
2013-05-17 13:01:00,83.1,67.8,30.08,NW,325,0.0,6.0,60,0.00,,,0.00,1037.0,meteohub,2013-05-17 17:01:00,
2013-05-17 13:06:00,83.7,68.4,30.08,South,176,1.0,6.0,60,0.00,,,0.00,1076.0,meteohub,2013-05-17 17:06:00,
2013-05-17 13:11:00,84.0,67.6,30.07,South,169,0.0,5.0,58,0.00,,,0.00,1090.0,meteohub,2013-05-17 17:11:00,
2013-05-17 13:16:00,84.9,68.5,30.07,SE,144,1.0,4.0,58,0.00,,,0.00,1109.0,meteohub,2013-05-17 17:16:00,
2013-05-17 13:21:00,84.9,68.9,30.07,SSW,207,0.0,4.0,59,0.00,,,0.00,1042.0,meteohub,2013-05-17 17:21:00,
2013-05-17 13:26:00,84.9,67.5,30.07,SSW,206,0.0,4.0,56,0.00,,,0.00,348.0,meteohub,2013-05-17 17:26:00,
2013-05-17 13:31:00,84.6,67.6,30.07,NE,55,0.0,4.0,57,0.00,,,0.00,429.0,meteohub,2013-05-17 17:31:00,
2013-05-17 13:36:00,84.0,68.2,30.06,NE,54,0.0,4.0,59,0.00,,,0.00,262.0,meteohub,2013-05-17 17:36:00,
2013-05-17 13:41:00,83.8,68.0,30.06,SSE,160,0.0,3.0,59,0.00,,,0.00,1100.0,meteohub,2013-05-17 17:41:00,
2013-05-17 13:46:00,84.7,69.8,30.06,ESE,122,2.0,4.0,61,0.00,,,0.00,1097.0,meteohub,2013-05-17 17:46:00,
2013-05-17 13:51:00,84.9,70.0,30.06,ESE,110,1.0,5.0,61,0.00,,,0.00,1118.0,meteohub,2013-05-17 17:51:00,
2013-05-17 13:56:00,84.9,69.4,30.06,East,80,0.0,9.0,60,0.00,,,0.00,1023.0,meteohub,2013-05-17 17:56:00,
2013-05-17 14:01:00,84.0,70.0,30.06,NE,56,1.0,9.0,63,0.00,,,0.00,408.0,meteohub,2013-05-17 18:01:00,
2013-05-17 14:06:00,84.2,69.8,30.06,SE,132,4.0,7.0,62,0.00,,,0.00,1014.0,meteohub,2013-05-17 18:06:00,
2013-05-17 14:11:00,84.6,68.7,30.06,ESE,113,0.0,7.0,59,0.00,,,0.00,1023.0,meteohub,2013-05-17 18:11:00,
2013-05-17 14:16:00,84.4,69.4,30.06,ESE,110,0.0,10.0,61,0.00,,,0.00,874.0,meteohub,2013-05-17 18:16:00,
2013-05-17 14:21:00,84.4,68.9,30.06,East,101,1.0,10.0,60,0.00,,,0.00,896.0,meteohub,2013-05-17 18:21:00,
2013-05-17 14:26:00,84.6,69.1,30.06,SE,146,0.0,10.0,60,0.00,,,0.00,916.0,meteohub,2013-05-17 18:26:00,
2013-05-17 14:31:00,84.6,69.1,30.06,ESE,119,0.0,8.0,60,0.00,,,0.00,868.0,meteohub,2013-05-17 18:31:00,
2013-05-17 14:36:00,84.9,70.0,30.06,SE,128,1.0,7.0,61,0.00,,,0.00,865.0,meteohub,2013-05-17 18:36:00,
2013-05-17 14:41:00,84.6,70.2,30.06,East,92,5.0,8.0,62,0.00,,,0.00,916.0,meteohub,2013-05-17 18:41:00,
2013-05-17 14:46:00,84.4,69.4,30.06,East,80,6.0,8.0,61,0.00,,,0.00,842.0,meteohub,2013-05-17 18:46:00,
2013-05-17 14:51:00,84.4,70.0,30.06,East,95,0.0,8.0,62,0.00,,,0.00,926.0,meteohub,2013-05-17 18:51:00,
2013-05-17 14:56:00,84.2,68.7,30.05,SE,128,5.0,8.0,60,0.00,,,0.00,918.0,meteohub,2013-05-17 18:56:00,
2013-05-17 15:01:00,83.7,69.3,30.05,SSE,168,9.0,10.0,62,0.00,,,0.00,881.0,meteohub,2013-05-17 19:01:00,
2013-05-17 15:06:00,83.7,69.8,30.05,SE,132,2.0,11.0,63,0.00,,,0.00,891.0,meteohub,2013-05-17 19:06:00,
2013-05-17 15:11:00,83.7,70.2,30.05,SE,124,4.0,11.0,64,0.00,,,0.00,914.0,meteohub,2013-05-17 19:11:00,
2013-05-17 15:16:00,83.1,69.3,30.05,East,81,1.0,12.0,63,0.00,,,0.00,879.0,meteohub,2013-05-17 19:16:00,
2013-05-17 15:21:00,82.4,69.4,30.05,SSE,163,2.0,12.0,65,0.00,,,0.00,819.0,meteohub,2013-05-17 19:21:00,
2013-05-17 15:26:00,82.9,70.0,30.05,East,79,2.0,12.0,65,0.00,,,0.00,745.0,meteohub,2013-05-17 19:26:00,
2013-05-17 15:31:00,83.5,69.6,30.05,ENE,78,0.0,12.0,63,0.00,,,0.00,751.0,meteohub,2013-05-17 19:31:00,
2013-05-17 15:36:00,82.9,68.5,30.05,East,98,3.0,7.0,62,0.00,,,0.00,779.0,meteohub,2013-05-17 19:36:00,
2013-05-17 15:41:00,82.8,67.5,30.05,SW,222,8.0,11.0,60,0.00,,,0.00,830.0,meteohub,2013-05-17 19:41:00,
2013-05-17 15:46:00,82.6,68.2,30.05,ENE,78,7.0,12.0,62,0.00,,,0.00,842.0,meteohub,2013-05-17 19:46:00,
2013-05-17 15:51:00,82.6,67.3,30.05,ENE,67,2.0,12.0,60,0.00,,,0.00,830.0,meteohub,2013-05-17 19:51:00,
2013-05-17 15:56:00,82.6,66.4,30.05,East,99,9.0,12.0,58,0.00,,,0.00,761.0,meteohub,2013-05-17 19:56:00,
2013-05-17 16:01:00,82.6,66.7,30.05,East,89,3.0,10.0,59,0.00,,,0.00,735.0,meteohub,2013-05-17 20:01:00,
2013-05-17 16:06:00,82.2,66.4,30.05,SE,144,1.0,10.0,59,0.00,,,0.00,754.0,meteohub,2013-05-17 20:06:00,
2013-05-17 16:11:00,82.0,67.6,30.04,East,84,1.0,10.0,62,0.00,,,0.00,686.0,meteohub,2013-05-17 20:11:00,
2013-05-17 16:16:00,82.4,66.6,30.04,SE,142,0.0,10.0,59,0.00,,,0.00,654.0,meteohub,2013-05-17 20:16:00,
2013-05-17 16:21:00,82.8,67.5,30.04,ESE,103,1.0,10.0,60,0.00,,,0.00,668.0,meteohub,2013-05-17 20:21:00,
2013-05-17 16:26:00,82.6,67.3,30.04,SSE,148,5.0,10.0,60,0.00,,,0.00,659.0,meteohub,2013-05-17 20:26:00,
2013-05-17 16:31:00,82.0,66.7,30.04,ESE,118,5.0,11.0,60,0.00,,,0.00,645.0,meteohub,2013-05-17 20:31:00,
2013-05-17 16:36:00,81.7,66.4,30.04,SE,144,3.0,11.0,60,0.00,,,0.00,649.0,meteohub,2013-05-17 20:36:00,
2013-05-17 16:41:00,81.5,66.7,30.04,East,87,3.0,11.0,61,0.00,,,0.00,561.0,meteohub,2013-05-17 20:41:00,
2013-05-17 16:46:00,81.3,66.6,30.04,SSE,167,1.0,8.0,61,0.00,,,0.00,529.0,meteohub,2013-05-17 20:46:00,
2013-05-17 16:51:00,81.3,67.1,30.04,East,99,5.0,9.0,62,0.00,,,0.00,448.0,meteohub,2013-05-17 20:51:00,
2013-05-17 16:56:00,81.0,66.7,30.04,SE,140,5.0,9.0,62,0.00,,,0.00,290.0,meteohub,2013-05-17 20:56:00,
2013-05-17 17:01:00,80.4,66.7,30.04,ESE,109,0.0,9.0,63,0.00,,,0.00,315.0,meteohub,2013-05-17 21:01:00,
2013-05-17 17:06:00,80.1,66.4,30.04,ESE,118,3.0,9.0,63,0.00,,,0.00,392.0,meteohub,2013-05-17 21:06:00,
2013-05-17 17:11:00,79.7,66.4,30.04,SSE,162,3.0,11.0,64,0.00,,,0.00,390.0,meteohub,2013-05-17 21:11:00,
2013-05-17 17:16:00,79.5,66.7,30.04,ESE,110,2.0,11.0,65,0.00,,,0.00,135.0,meteohub,2013-05-17 21:16:00,
2013-05-17 17:21:00,79.2,65.8,30.04,ESE,105,0.0,10.0,64,0.00,,,0.00,134.0,meteohub,2013-05-17 21:21:00,
2013-05-17 17:26:00,79.0,66.2,30.04,SE,146,0.0,11.0,65,0.00,,,0.00,185.0,meteohub,2013-05-17 21:26:00,
2013-05-17 17:31:00,79.3,66.6,30.04,ESE,105,0.0,11.0,65,0.00,,,0.00,144.0,meteohub,2013-05-17 21:31:00,
2013-05-17 17:36:00,79.3,66.0,30.04,East,80,7.0,10.0,64,0.00,,,0.00,132.0,meteohub,2013-05-17 21:36:00,
2013-05-17 17:41:00,79.0,66.2,30.04,East,83,0.0,9.0,65,0.00,,,0.00,125.0,meteohub,2013-05-17 21:41:00,
2013-05-17 17:46:00,78.6,66.4,30.03,ENE,65,0.0,9.0,66,0.00,,,0.00,127.0,meteohub,2013-05-17 21:46:00,
2013-05-17 17:51:00,78.6,66.7,30.04,ESE,111,0.0,9.0,67,0.00,,,0.00,167.0,meteohub,2013-05-17 21:51:00,
2013-05-17 17:56:00,78.6,66.7,30.03,South,186,3.0,7.0,67,0.00,,,0.00,155.0,meteohub,2013-05-17 21:56:00,
2013-05-17 18:01:00,78.6,66.4,30.03,SSE,161,1.0,8.0,66,0.00,,,0.00,137.0,meteohub,2013-05-17 22:01:00,
2013-05-17 18:06:00,78.3,66.0,30.03,East,91,0.0,9.0,66,0.00,,,0.00,121.0,meteohub,2013-05-17 22:06:00,
2013-05-17 18:11:00,78.1,65.3,30.03,SE,127,1.0,9.0,65,0.00,,,0.00,114.0,meteohub,2013-05-17 22:11:00,
2013-05-17 18:16:00,77.7,65.5,30.03,East,97,0.0,9.0,66,0.00,,,0.00,105.0,meteohub,2013-05-17 22:16:00,
2013-05-17 18:21:00,77.5,65.7,30.03,SE,132,0.0,9.0,67,0.00,,,0.00,104.0,meteohub,2013-05-17 22:21:00,
2013-05-17 18:26:00,77.5,65.7,30.03,South,170,0.0,9.0,67,0.00,,,0.00,104.0,meteohub,2013-05-17 22:26:00,
2013-05-17 18:31:00,77.7,65.8,30.03,SE,142,0.0,7.0,67,0.00,,,0.00,98.0,meteohub,2013-05-17 22:31:00,
2013-05-17 18:36:00,77.9,65.7,30.03,ESE,108,1.0,7.0,66,0.00,,,0.00,93.0,meteohub,2013-05-17 22:36:00,
2013-05-17 18:41:00,78.1,66.2,30.03,ESE,110,0.0,7.0,67,0.00,,,0.00,84.0,meteohub,2013-05-17 22:41:00,
2013-05-17 18:46:00,78.1,65.8,30.03,East,86,5.0,5.0,66,0.00,,,0.00,72.0,meteohub,2013-05-17 22:46:00,
2013-05-17 18:51:00,77.7,65.8,30.03,SSE,166,2.0,5.0,67,0.00,,,0.00,63.0,meteohub,2013-05-17 22:51:00,
2013-05-17 18:56:00,77.4,64.8,30.03,ESE,106,7.0,7.0,65,0.00,,,0.00,54.0,meteohub,2013-05-17 22:56:00,
2013-05-17 19:01:00,77.2,65.3,30.03,SE,125,0.0,9.0,67,0.00,,,0.00,49.0,meteohub,2013-05-17 23:01:00,
2013-05-17 19:06:00,76.8,64.9,30.03,ESE,114,2.0,9.0,67,0.00,,,0.00,44.0,meteohub,2013-05-17 23:06:00,
2013-05-17 19:11:00,76.6,64.9,30.04,SE,144,0.0,8.0,67,0.00,,,0.00,40.0,meteohub,2013-05-17 23:11:00,
2013-05-17 19:16:00,76.5,65.1,30.04,East,80,3.0,7.0,68,0.00,,,0.00,37.0,meteohub,2013-05-17 23:16:00,
2013-05-17 19:21:00,76.3,65.3,30.04,SSE,150,0.0,5.0,69,0.00,,,0.00,33.0,meteohub,2013-05-17 23:21:00,
2013-05-17 19:26:00,76.1,66.0,30.04,SE,130,2.0,5.0,71,0.00,,,0.00,32.0,meteohub,2013-05-17 23:26:00,
2013-05-17 19:31:00,75.9,66.2,30.04,SE,132,0.0,3.0,72,0.00,,,0.00,28.0,meteohub,2013-05-17 23:31:00,
2013-05-17 19:36:00,75.7,66.9,30.04,SE,132,0.0,3.0,74,0.00,,,0.00,26.0,meteohub,2013-05-17 23:36:00,
2013-05-17 19:41:00,75.4,67.3,30.04,East,89,0.0,4.0,76,0.00,,,0.00,23.0,meteohub,2013-05-17 23:41:00,
2013-05-17 19:46:00,74.8,67.1,30.04,ESE,118,3.0,8.0,77,0.00,,,0.00,19.0,meteohub,2013-05-17 23:46:00,
2013-05-17 19:51:00,74.5,67.1,30.04,SE,136,1.0,8.0,78,0.00,,,0.00,18.0,meteohub,2013-05-17 23:51:00,
2013-05-17 19:56:00,74.1,67.1,30.04,SE,126,0.0,8.0,79,0.00,,,0.00,12.0,meteohub,2013-05-17 23:56:00,
2013-05-17 20:01:00,73.9,67.5,30.04,SSE,154,0.0,5.0,80,0.00,,,0.00,11.0,meteohub,2013-05-18 00:01:00,
2013-05-17 20:06:00,73.8,67.6,30.04,South,172,4.0,11.0,81,0.00,,,0.00,7.0,meteohub,2013-05-18 00:06:00,
2013-05-17 20:11:00,73.6,67.8,30.04,South,183,2.0,11.0,82,0.00,,,0.00,5.0,meteohub,2013-05-18 00:11:00,
2013-05-17 20:16:00,73.2,67.8,30.04,SE,129,0.0,11.0,83,0.00,,,0.00,0.0,meteohub,2013-05-18 00:16:00,
2013-05-17 20:21:00,73.2,68.2,30.04,SE,136,0.0,7.0,84,0.00,,,0.00,0.0,meteohub,2013-05-18 00:21:00,
2013-05-17 20:26:00,73.0,68.2,30.05,SSE,153,0.0,7.0,85,0.00,,,0.00,0.0,meteohub,2013-05-18 00:26:00,
2013-05-17 20:31:00,72.9,68.4,30.05,SE,132,1.0,7.0,86,0.00,,,0.00,0.0,meteohub,2013-05-18 00:31:00,
2013-05-17 20:36:00,72.7,68.2,30.05,ESE,121,0.0,7.0,86,0.00,,,0.00,0.0,meteohub,2013-05-18 00:36:00,
2013-05-17 20:41:00,72.7,68.5,30.05,SE,126,3.0,6.0,87,0.00,,,0.00,0.0,meteohub,2013-05-18 00:41:00,
2013-05-17 20:46:00,72.5,68.4,30.05,SE,145,1.0,6.0,87,0.00,,,0.00,0.0,meteohub,2013-05-18 00:46:00,
2013-05-17 20:51:00,72.3,68.2,30.05,ESE,123,0.0,5.0,87,0.00,,,0.00,0.0,meteohub,2013-05-18 00:51:00,
2013-05-17 20:56:00,72.3,68.2,30.05,SE,146,2.0,5.0,87,0.00,,,0.00,0.0,meteohub,2013-05-18 00:56:00,
2013-05-17 21:01:00,72.1,68.0,30.05,ESE,115,0.0,5.0,87,0.00,,,0.00,0.0,meteohub,2013-05-18 01:01:00,
2013-05-17 21:06:00,72.1,68.0,30.05,South,170,0.0,5.0,87,0.00,,,0.00,0.0,meteohub,2013-05-18 01:06:00,
2013-05-17 21:11:00,72.1,68.0,30.05,SE,132,4.0,5.0,87,0.00,,,0.00,0.0,meteohub,2013-05-18 01:11:00,
2013-05-17 21:16:00,72.0,67.8,30.05,South,184,0.0,5.0,87,0.00,,,0.00,0.0,meteohub,2013-05-18 01:16:00,
2013-05-17 21:21:00,72.0,68.2,30.05,ESE,113,0.0,5.0,88,0.00,,,0.00,0.0,meteohub,2013-05-18 01:21:00,
2013-05-17 21:26:00,72.0,68.2,30.05,SSE,151,0.0,7.0,88,0.00,,,0.00,0.0,meteohub,2013-05-18 01:26:00,
2013-05-17 21:31:00,71.8,68.0,30.05,SE,140,1.0,7.0,88,0.00,,,0.00,0.0,meteohub,2013-05-18 01:31:00,
2013-05-17 21:36:00,71.8,68.0,30.05,East,93,0.0,7.0,88,0.00,,,0.00,0.0,meteohub,2013-05-18 01:36:00,
2013-05-17 21:41:00,71.6,67.8,30.05,ESE,109,0.0,5.0,88,0.00,,,0.00,0.0,meteohub,2013-05-18 01:41:00,
2013-05-17 21:46:00,71.6,67.8,30.05,SE,128,0.0,5.0,88,0.00,,,0.00,0.0,meteohub,2013-05-18 01:46:00,
2013-05-17 21:51:00,71.4,67.6,30.05,East,101,0.0,5.0,88,0.00,,,0.00,0.0,meteohub,2013-05-18 01:51:00,
2013-05-17 21:56:00,71.4,67.6,30.05,SE,127,0.0,5.0,88,0.00,,,0.00,0.0,meteohub,2013-05-18 01:56:00,
2013-05-17 22:01:00,71.4,67.6,30.05,ESE,109,0.0,5.0,88,0.00,,,0.00,0.0,meteohub,2013-05-18 02:01:00,
2013-05-17 22:06:00,71.4,68.0,30.05,SSE,159,1.0,5.0,89,0.00,,,0.00,0.0,meteohub,2013-05-18 02:06:00,
2013-05-17 22:11:00,71.4,68.0,30.06,ESE,111,2.0,4.0,89,0.00,,,0.00,0.0,meteohub,2013-05-18 02:11:00,
2013-05-17 22:17:00,71.2,67.8,30.06,SE,126,0.0,4.0,89,0.00,,,0.00,0.0,meteohub,2013-05-18 02:17:00,
2013-05-17 22:22:00,71.2,67.8,30.06,ESE,119,1.0,4.0,89,0.00,,,0.00,0.0,meteohub,2013-05-18 02:22:00,
2013-05-17 22:27:00,71.2,67.8,30.06,SE,144,1.0,3.0,89,0.00,,,0.00,0.0,meteohub,2013-05-18 02:27:00,
2013-05-17 22:31:00,71.2,67.8,30.06,SE,144,0.0,5.0,89,0.00,,,0.00,0.0,meteohub,2013-05-18 02:31:00,
2013-05-17 22:36:00,71.2,67.8,30.06,ESE,115,1.0,5.0,89,0.00,,,0.00,0.0,meteohub,2013-05-18 02:36:00,
2013-05-17 22:42:00,71.2,68.2,30.06,ESE,116,0.0,5.0,90,0.00,,,0.00,0.0,meteohub,2013-05-18 02:42:00,
2013-05-17 22:47:00,71.1,68.0,30.06,ESE,117,0.0,2.0,90,0.00,,,0.00,0.0,meteohub,2013-05-18 02:47:00,
2013-05-17 22:52:00,71.1,68.0,30.06,ESE,117,0.0,3.0,90,0.00,,,0.00,0.0,meteohub,2013-05-18 02:52:00,
2013-05-17 22:57:00,70.9,67.8,30.07,ESE,117,0.0,3.0,90,0.00,,,0.00,0.0,meteohub,2013-05-18 02:57:00,
2013-05-17 23:01:00,70.9,68.2,30.06,ESE,115,0.0,2.0,91,0.00,,,0.00,0.0,meteohub,2013-05-18 03:01:00,
2013-05-17 23:06:00,70.9,68.2,30.07,ESE,116,0.0,2.0,91,0.00,,,0.00,0.0,meteohub,2013-05-18 03:06:00,
2013-05-17 23:11:00,70.7,68.0,30.07,ESE,117,0.0,2.0,91,0.00,,,0.00,0.0,meteohub,2013-05-18 03:11:00,
2013-05-17 23:17:00,70.5,67.8,30.07,ESE,121,0.0,2.0,91,0.00,,,0.00,0.0,meteohub,2013-05-18 03:17:00,
2013-05-17 23:22:00,70.5,67.8,30.07,ESE,120,0.0,2.0,91,0.00,,,0.00,0.0,meteohub,2013-05-18 03:22:00,
2013-05-17 23:27:00,70.3,67.6,30.07,ESE,120,0.0,2.0,91,0.00,,,0.00,0.0,meteohub,2013-05-18 03:27:00,
2013-05-17 23:32:00,70.2,67.6,30.07,ESE,121,0.0,1.0,92,0.00,,,0.00,0.0,meteohub,2013-05-18 03:32:00,
2013-05-17 23:37:00,70.2,67.6,30.07,ESE,121,0.0,1.0,92,0.00,,,0.00,0.0,meteohub,2013-05-18 03:37:00,
2013-05-17 23:42:00,70.0,67.5,30.07,ESE,121,0.0,2.0,92,0.00,,,0.00,0.0,meteohub,2013-05-18 03:42:00,
2013-05-17 23:47:00,70.2,67.6,30.07,ESE,122,0.0,3.0,92,0.00,,,0.00,0.0,meteohub,2013-05-18 03:47:00,
2013-05-17 23:52:00,70.3,67.8,30.07,ESE,119,0.0,3.0,92,0.00,,,0.00,0.0,meteohub,2013-05-18 03:52:00,
2013-05-17 23:57:00,70.5,68.0,30.06,SE,145,0.0,3.0,92,0.00,,,0.00,0.0,meteohub,2013-05-18 03:57:00,